createdAt,value
2023-05-14T00:02:13.506Z,33.34
2023-05-14T00:05:16.886Z,34.57
2023-05-14T00:08:20.302Z,34.70
2023-05-14T00:11:25.568Z,35.71
2023-05-14T00:14:29.073Z,36.05
2023-05-14T00:17:32.685Z,36.52
2023-05-14T00:20:45.248Z,35.82
2023-05-14T00:23:48.671Z,35.20
2023-05-14T00:26:51.964Z,35.05
2023-05-14T00:29:55.514Z,34.60
2023-05-14T00:32:58.938Z,34.35
2023-05-14T00:36:27.777Z,35.10
2023-05-14T00:39:55.159Z,35.16
2023-05-14T00:43:04.489Z,35.86
2023-05-14T00:46:08.087Z,36.68
2023-05-14T00:49:11.719Z,37.28
2023-05-14T00:52:16.278Z,38.59
2023-05-14T00:55:20.875Z,39.06
2023-05-14T00:58:25.296Z,38.88
2023-05-14T01:01:29.276Z,38.98
2023-05-14T01:04:32.721Z,40.05
2023-05-14T01:07:48.576Z,40.38
2023-05-14T01:11:14.810Z,41.21
2023-05-14T01:14:44.814Z,41.49
2023-05-14T01:18:00.127Z,41.33
2023-05-14T01:21:03.594Z,41.52
2023-05-14T01:24:07.837Z,42.13
2023-05-14T01:27:39.189Z,41.96
2023-05-14T01:30:55.011Z,41.92
2023-05-14T01:34:00.863Z,42.05
2023-05-14T01:37:06.275Z,41.50
2023-05-14T01:40:11.176Z,42.23
2023-05-14T01:46:34.132Z,41.03
2023-05-14T01:49:38.029Z,40.69
2023-05-14T01:52:41.324Z,39.98
2023-05-14T01:55:44.692Z,40.13
2023-05-14T01:58:48.511Z,39.02
2023-05-14T02:04:52.591Z,38.02
2023-05-14T02:07:55.947Z,38.23
2023-05-14T02:10:59.424Z,36.68
2023-05-14T02:14:02.744Z,36.51
2023-05-14T02:17:06.527Z,37.96
2023-05-14T02:20:10.921Z,37.15
2023-05-14T02:23:14.292Z,37.54
2023-05-14T02:26:19.335Z,37.11
2023-05-14T02:29:25.723Z,38.38
2023-05-14T02:32:29.410Z,41.02
2023-05-14T02:35:32.739Z,43.31
2023-05-14T02:38:36.476Z,45.22
2023-05-14T02:41:39.980Z,48.25
2023-05-14T02:44:46.269Z,49.64
2023-05-14T02:48:00.285Z,51.33
2023-05-14T02:51:04.461Z,50.29
2023-05-14T02:57:50.184Z,56.13
2023-05-14T03:00:55.879Z,57.79
2023-05-14T03:03:59.998Z,60.18
2023-05-14T03:07:06.651Z,59.43
2023-05-14T03:10:15.208Z,61.80
2023-05-14T03:13:20.781Z,62.57
2023-05-14T03:16:24.820Z,62.04
2023-05-14T03:19:28.151Z,63.04
2023-05-14T03:22:31.650Z,61.53
2023-05-14T03:25:35.230Z,65.71
2023-05-14T03:28:44.577Z,66.21
2023-05-14T03:31:48.977Z,67.72
2023-05-14T03:34:52.306Z,68.34
2023-05-14T03:37:55.750Z,69.69
2023-05-14T03:41:10.520Z,67.91
2023-05-14T03:44:14.250Z,69.21
2023-05-14T03:47:17.785Z,67.71
2023-05-14T03:50:21.538Z,69.68
2023-05-14T03:53:26.884Z,70.12
2023-05-14T03:56:30.310Z,70.66
2023-05-14T03:59:36.093Z,72.81
2023-05-14T04:02:42.407Z,73.34
2023-05-14T04:05:45.992Z,74.29
2023-05-14T04:08:49.614Z,73.50
2023-05-14T04:11:52.933Z,73.78
2023-05-14T04:14:57.728Z,72.90
2023-05-14T04:18:01.392Z,72.88
2023-05-14T04:21:06.372Z,72.52
2023-05-14T04:24:11.452Z,72.12
2023-05-14T04:27:23.882Z,70.97
2023-05-14T04:30:27.484Z,72.55
2023-05-14T04:33:32.948Z,72.15
2023-05-14T04:36:36.410Z,73.55
2023-05-14T04:42:40.802Z,74.56
2023-05-14T04:45:45.421Z,74.81
2023-05-14T04:48:49.566Z,73.81
2023-05-14T04:51:56.132Z,73.55
2023-05-14T04:55:05.711Z,72.71
2023-05-14T04:58:09.142Z,72.71
2023-05-14T05:01:12.889Z,75.63
2023-05-14T05:04:19.295Z,73.14
2023-05-14T05:07:24.192Z,72.72
2023-05-14T05:10:27.687Z,73.98
2023-05-14T05:13:31.069Z,72.49
2023-05-14T05:16:34.836Z,70.81
2023-05-14T05:19:43.588Z,68.22
2023-05-14T05:22:48.260Z,65.08
2023-05-14T05:25:53.247Z,65.62
2023-05-14T05:28:56.734Z,64.74
2023-05-14T05:32:08.040Z,62.03
2023-05-14T05:35:11.634Z,61.68
2023-05-14T05:38:16.435Z,62.98
2023-05-14T05:41:42.748Z,62.28
2023-05-14T05:44:46.423Z,62.23
2023-05-14T05:47:51.024Z,59.61
2023-05-14T05:51:02.884Z,57.10
2023-05-14T05:57:33.829Z,57.92
2023-05-14T06:00:37.596Z,55.95
2023-05-14T06:03:44.852Z,56.06
2023-05-14T06:06:49.863Z,53.85
2023-05-14T06:09:53.395Z,54.18
2023-05-14T06:12:56.689Z,51.55
2023-05-14T06:16:00.197Z,47.50
2023-05-14T06:19:03.769Z,46.64
2023-05-14T06:22:08.980Z,47.77
2023-05-14T06:25:20.231Z,47.06
2023-05-14T06:28:26.983Z,47.16
2023-05-14T06:31:30.496Z,45.28
2023-05-14T06:34:38.534Z,44.99
2023-05-14T06:37:41.958Z,43.04
2023-05-14T06:40:45.513Z,44.05
2023-05-14T06:43:50.260Z,41.63
2023-05-14T06:46:56.428Z,43.31
2023-05-14T06:50:02.663Z,46.56
2023-05-14T06:53:06.139Z,44.40
2023-05-14T06:56:19.417Z,44.35
2023-05-14T06:59:41.312Z,44.85
2023-05-14T07:02:45.737Z,43.09
2023-05-14T07:05:49.961Z,43.22
2023-05-14T07:08:54.072Z,46.17
2023-05-14T07:11:57.701Z,42.97
2023-05-14T07:15:10.525Z,42.06
2023-05-14T07:18:15.749Z,39.74
2023-05-14T07:21:19.504Z,37.03
2023-05-14T07:24:23.251Z,35.04
2023-05-14T07:27:26.789Z,35.07
2023-05-14T07:30:30.260Z,35.78
2023-05-14T07:33:40.258Z,35.05
2023-05-14T07:36:44.563Z,33.75
2023-05-14T07:39:51.865Z,35.58
2023-05-14T07:43:02.234Z,33.97
2023-05-14T07:46:08.392Z,29.99
2023-05-14T07:49:14.222Z,30.85
2023-05-14T07:52:17.723Z,32.21
2023-05-14T07:58:42.262Z,30.98
2023-05-14T08:01:47.145Z,31.16
2023-05-14T08:04:50.689Z,30.18
2023-05-14T08:07:54.189Z,31.58
2023-05-14T08:10:57.709Z,31.58
2023-05-14T08:14:01.553Z,29.88
2023-05-14T08:17:05.472Z,28.76
2023-05-14T08:20:10.667Z,28.08
2023-05-14T08:23:15.336Z,27.51
2023-05-14T08:26:21.685Z,25.65
2023-05-14T08:29:26.715Z,27.12
2023-05-14T08:32:36.479Z,27.72
2023-05-14T08:35:39.968Z,25.16
2023-05-14T08:38:43.392Z,22.98
2023-05-14T08:41:51.501Z,22.52
2023-05-14T08:45:04.105Z,23.08
2023-05-14T08:51:30.327Z,22.62
2023-05-14T08:54:34.044Z,22.88
2023-05-14T08:57:37.888Z,24.11
2023-05-14T09:00:43.158Z,23.95
2023-05-14T09:03:48.266Z,22.09
2023-05-14T09:07:01.307Z,21.46
2023-05-14T09:10:08.179Z,20.85
2023-05-14T09:13:28.599Z,20.60
2023-05-14T09:16:36.630Z,19.50
2023-05-14T09:19:51.656Z,18.74
2023-05-14T09:23:04.260Z,18.86
2023-05-14T09:26:11.699Z,19.93
2023-05-14T09:29:15.761Z,20.39
2023-05-14T09:32:22.707Z,19.86
2023-05-14T09:35:26.730Z,19.96
2023-05-14T09:38:34.377Z,19.77
2023-05-14T09:41:38.413Z,21.22
2023-05-14T09:44:42.110Z,20.60
2023-05-14T09:47:49.166Z,20.68
2023-05-14T09:50:55.698Z,18.99
2023-05-14T09:54:06.899Z,19.51
2023-05-14T09:57:13.493Z,19.29
2023-05-14T10:00:46.933Z,19.90
2023-05-14T10:04:00.081Z,20.52
2023-05-14T10:07:04.549Z,19.22
2023-05-14T10:10:25.015Z,19.12
2023-05-14T10:13:36.882Z,19.27
2023-05-14T10:20:10.963Z,19.56
2023-05-14T10:23:17.764Z,19.82
2023-05-14T10:29:39.539Z,19.66
2023-05-14T10:32:47.795Z,19.94
2023-05-14T10:36:09.056Z,20.05
2023-05-14T10:39:12.408Z,19.21
2023-05-14T10:42:41.515Z,20.09
2023-05-14T10:45:46.608Z,20.28
2023-05-14T10:48:51.702Z,20.48
2023-05-14T10:51:56.150Z,19.97
2023-05-14T10:55:04.042Z,19.68
2023-05-14T10:58:09.249Z,20.12
2023-05-14T11:01:14.440Z,20.35
2023-05-14T11:04:28.793Z,21.03
2023-05-14T11:07:41.375Z,20.49
2023-05-14T11:10:47.911Z,19.60
2023-05-14T11:13:52.708Z,19.64
2023-05-14T11:16:57.130Z,20.14
2023-05-14T11:20:01.152Z,20.93
2023-05-14T11:23:04.730Z,20.99
2023-05-14T11:26:08.701Z,21.18
2023-05-14T11:29:12.379Z,21.34
2023-05-14T11:32:17.235Z,21.60
2023-05-14T11:35:24.231Z,22.24
2023-05-14T11:38:27.648Z,22.72
2023-05-14T11:41:34.099Z,23.04
2023-05-14T11:44:40.749Z,23.84
2023-05-14T11:47:44.817Z,23.65
2023-05-14T11:50:53.200Z,23.67
2023-05-14T11:53:57.005Z,23.98
2023-05-14T11:57:02.746Z,24.34
2023-05-14T12:00:10.307Z,24.54
2023-05-14T12:03:15.721Z,24.78
2023-05-14T12:06:20.128Z,25.43
2023-05-14T12:09:24.367Z,26.05
2023-05-14T12:12:30.624Z,26.03
2023-05-14T12:15:37.328Z,26.22
2023-05-14T12:25:21.110Z,26.51
2023-05-14T12:28:25.414Z,27.04
2023-05-14T12:31:33.937Z,27.22
2023-05-14T12:34:38.424Z,26.94
2023-05-14T12:37:42.593Z,27.18
2023-05-14T12:40:46.536Z,27.42
2023-05-14T12:43:50.882Z,27.69
2023-05-14T12:46:54.816Z,28.18
2023-05-14T12:49:58.493Z,28.26
2023-05-14T12:53:05.265Z,29.16
2023-05-14T12:56:09.169Z,29.07
2023-05-14T12:59:12.584Z,29.23
2023-05-14T13:02:17.348Z,29.22
2023-05-14T13:05:21.057Z,29.43
2023-05-14T13:08:28.196Z,29.79
2023-05-14T13:11:32.864Z,30.29
2023-05-14T13:14:37.265Z,29.66
2023-05-14T13:17:42.059Z,29.97
2023-05-14T13:20:48.961Z,30.55
2023-05-14T13:23:52.558Z,30.14
2023-05-14T13:26:56.020Z,30.51
2023-05-14T13:30:00.394Z,30.68
2023-05-14T13:33:04.003Z,31.13
2023-05-14T13:36:08.844Z,30.78
2023-05-14T13:39:15.213Z,30.82
2023-05-14T13:42:18.609Z,31.51
2023-05-14T13:45:22.074Z,31.86
2023-05-14T13:48:26.773Z,31.50
2023-05-14T13:51:30.322Z,31.84
2023-05-14T13:54:33.713Z,32.21
2023-05-14T13:57:37.701Z,32.03
2023-05-14T14:00:41.370Z,32.02
2023-05-14T14:03:45.937Z,32.07
2023-05-14T14:06:50.061Z,31.73
2023-05-14T14:09:53.735Z,32.00
2023-05-14T14:12:57.270Z,31.95
2023-05-14T14:16:00.756Z,32.21
2023-05-14T14:19:04.403Z,32.53
2023-05-14T14:22:07.966Z,32.94
2023-05-14T14:25:13.062Z,32.90
2023-05-14T14:28:16.479Z,32.81
2023-05-14T14:31:21.506Z,32.85
2023-05-14T14:34:25.007Z,33.18
2023-05-14T14:37:28.430Z,32.49
2023-05-14T14:40:34.846Z,32.86
2023-05-14T14:43:42.136Z,33.02
2023-05-14T14:46:45.593Z,32.29
2023-05-14T14:49:49.052Z,32.18
2023-05-14T14:52:52.920Z,32.44
2023-05-14T14:55:56.939Z,32.95
2023-05-14T14:59:00.684Z,33.32
2023-05-14T15:02:04.440Z,33.43
2023-05-14T15:05:08.267Z,34.10
2023-05-14T15:08:12.061Z,34.64
2023-05-14T15:11:16.302Z,34.78
2023-05-14T15:14:19.998Z,35.71
2023-05-14T15:17:24.452Z,35.30
2023-05-14T15:20:28.024Z,35.08
2023-05-14T15:23:31.455Z,35.56
2023-05-14T15:26:35.044Z,36.03
2023-05-14T15:29:38.488Z,36.47
2023-05-14T15:32:42.225Z,37.32
2023-05-14T15:35:46.000Z,37.15
2023-05-14T15:38:49.620Z,37.36
2023-05-14T15:41:53.139Z,37.79
2023-05-14T15:44:56.698Z,37.63
2023-05-14T15:48:00.284Z,38.19
2023-05-14T15:51:04.109Z,38.15
2023-05-14T15:54:07.592Z,38.77
2023-05-14T15:57:11.186Z,38.87
2023-05-14T16:00:15.177Z,38.82
2023-05-14T16:03:18.763Z,39.43
2023-05-14T16:06:22.172Z,39.54
2023-05-14T16:09:27.562Z,39.54
2023-05-14T16:12:31.057Z,40.49
2023-05-14T16:15:34.539Z,40.84
2023-05-14T16:18:38.031Z,40.71
2023-05-14T16:21:41.426Z,41.31
2023-05-14T16:24:45.590Z,41.97
2023-05-14T16:27:49.030Z,41.80
2023-05-14T16:30:52.467Z,42.71
2023-05-14T16:33:55.824Z,42.50
2023-05-14T16:37:00.592Z,42.56
2023-05-14T16:40:04.583Z,42.63
2023-05-14T16:43:08.231Z,42.76
2023-05-14T16:46:12.533Z,42.71
2023-05-14T16:49:16.155Z,42.84
2023-05-14T16:52:19.622Z,42.90
2023-05-14T16:55:23.747Z,43.04
2023-05-14T16:58:27.454Z,42.60
2023-05-14T17:01:30.841Z,42.58
2023-05-14T17:04:39.109Z,42.98
2023-05-14T17:07:42.631Z,42.88
2023-05-14T17:10:46.139Z,42.82
2023-05-14T17:13:49.571Z,42.77
2023-05-14T17:16:53.060Z,42.93
2023-05-14T17:19:56.477Z,42.68
2023-05-14T17:22:59.867Z,42.82
2023-05-14T17:26:03.712Z,43.12
2023-05-14T17:29:07.066Z,43.18
2023-05-14T17:32:10.524Z,43.17
2023-05-14T17:35:13.974Z,43.56
2023-05-14T17:38:18.029Z,43.37
2023-05-14T17:41:22.379Z,43.33
2023-05-14T17:44:25.827Z,43.54
2023-05-14T17:47:29.652Z,43.79
2023-05-14T17:50:33.246Z,44.14
2023-05-14T17:53:36.706Z,44.31
2023-05-14T17:56:40.448Z,44.54
2023-05-14T17:59:43.945Z,44.86
2023-05-14T18:02:47.451Z,44.88
2023-05-14T18:05:51.996Z,45.43
2023-05-14T18:08:55.467Z,45.25
2023-05-14T18:11:58.870Z,45.50
2023-05-14T18:15:02.336Z,45.73
2023-05-14T18:18:06.283Z,46.09
2023-05-14T18:21:09.716Z,46.36
2023-05-14T18:24:13.086Z,46.36
2023-05-14T18:27:16.716Z,46.43
2023-05-14T18:30:20.084Z,46.40
2023-05-14T18:33:23.429Z,46.54
2023-05-14T18:36:26.896Z,46.67
2023-05-14T18:39:30.453Z,46.65
2023-05-14T18:42:34.733Z,46.83
2023-05-14T18:45:38.330Z,46.79
2023-05-14T18:48:42.150Z,46.99
2023-05-14T18:51:45.596Z,47.29
2023-05-14T18:54:49.020Z,47.08
2023-05-14T18:57:52.958Z,47.07
2023-05-14T19:00:58.620Z,47.22
2023-05-14T19:04:03.797Z,47.32
2023-05-14T19:07:09.138Z,47.19
2023-05-14T19:10:13.906Z,47.29
2023-05-14T19:13:17.456Z,47.37
2023-05-14T19:16:20.905Z,47.41
2023-05-14T19:19:24.301Z,47.60
2023-05-14T19:22:27.869Z,47.17
2023-05-14T19:25:31.243Z,47.40
2023-05-14T19:28:34.846Z,47.60
2023-05-14T19:31:38.367Z,47.60
2023-05-14T19:34:41.947Z,47.40
2023-05-14T19:37:45.399Z,47.75
2023-05-14T19:40:48.952Z,47.63
2023-05-14T19:43:52.377Z,47.59
2023-05-14T19:46:55.850Z,47.54
2023-05-14T19:49:59.159Z,47.46
2023-05-14T19:53:02.760Z,47.42
2023-05-14T19:56:06.429Z,47.45
2023-05-14T19:59:09.814Z,47.25
2023-05-14T20:02:19.047Z,47.64
2023-05-14T20:05:22.581Z,47.55
2023-05-14T20:08:26.316Z,47.55
2023-05-14T20:11:29.722Z,47.63
2023-05-14T20:14:33.097Z,47.89
2023-05-14T20:17:36.493Z,47.58
2023-05-14T20:20:40.825Z,47.78
2023-05-14T20:23:44.313Z,47.70
2023-05-14T20:26:47.846Z,47.64
2023-05-14T20:29:54.955Z,47.66
2023-05-14T20:32:58.521Z,47.50
2023-05-14T20:36:05.191Z,47.77
2023-05-14T20:39:09.511Z,47.59
2023-05-14T20:42:13.099Z,47.34
2023-05-14T20:45:16.564Z,47.46
2023-05-14T20:48:21.924Z,47.45
2023-05-14T20:51:25.416Z,47.49
2023-05-14T20:54:29.016Z,47.13
2023-05-14T20:57:32.521Z,47.32
2023-05-14T21:03:53.777Z,47.35
2023-05-14T21:06:57.589Z,47.15
2023-05-14T21:10:00.977Z,46.67
2023-05-14T21:13:04.392Z,46.78
2023-05-14T21:16:08.086Z,46.80
2023-05-14T21:19:12.659Z,46.41
2023-05-14T21:22:17.280Z,46.35
2023-05-14T21:25:20.739Z,46.25
2023-05-14T21:28:24.352Z,45.82
2023-05-14T21:31:27.817Z,45.48
2023-05-14T21:34:32.110Z,45.65
2023-05-14T21:37:35.630Z,45.07
2023-05-14T21:40:38.997Z,44.88
2023-05-14T21:43:42.470Z,44.69
2023-05-14T21:46:45.984Z,44.35
2023-05-14T21:49:49.494Z,43.50
2023-05-14T21:52:52.903Z,43.30
2023-05-14T21:55:58.708Z,42.80
2023-05-14T21:59:02.287Z,42.75
2023-05-14T22:02:07.691Z,42.07
2023-05-14T22:05:11.637Z,41.91
2023-05-14T22:08:15.193Z,41.43
2023-05-14T22:11:18.684Z,41.16
2023-05-14T22:14:22.298Z,40.97
2023-05-14T22:17:25.817Z,39.05
2023-05-14T22:20:29.435Z,37.25
2023-05-14T22:23:33.032Z,36.31
2023-05-14T22:26:39.334Z,32.49
2023-05-14T22:29:43.011Z,29.70
2023-05-14T22:32:46.535Z,28.14
2023-05-14T22:35:50.056Z,27.39
2023-05-14T22:38:57.274Z,26.50
2023-05-14T22:42:00.509Z,25.84
2023-05-14T22:45:04.724Z,25.57
2023-05-14T22:48:08.606Z,24.89
2023-05-14T22:51:12.160Z,24.96
2023-05-14T22:54:16.315Z,23.99
2023-05-14T22:57:23.631Z,23.72
2023-05-14T23:00:27.244Z,22.86
2023-05-14T23:03:30.650Z,22.44
2023-05-14T23:06:34.224Z,22.83
2023-05-14T23:09:38.246Z,22.44
2023-05-14T23:12:41.914Z,23.05
2023-05-14T23:15:46.489Z,22.91
2023-05-14T23:18:50.347Z,22.73
2023-05-14T23:21:54.016Z,22.22
2023-05-14T23:24:57.663Z,22.18
2023-05-14T23:28:01.446Z,22.09
2023-05-14T23:31:07.748Z,21.39
2023-05-14T23:34:11.285Z,21.07
2023-05-14T23:37:15.195Z,21.03
2023-05-14T23:40:19.443Z,21.85
2023-05-14T23:43:22.929Z,21.12
2023-05-14T23:46:26.602Z,20.78
2023-05-14T23:49:30.239Z,21.34
2023-05-14T23:52:34.223Z,20.49
2023-05-14T23:55:37.824Z,20.17
2023-05-14T23:58:41.562Z,19.74
